createdAt,value
2022-10-24T00:00:42.764Z,3.97
2022-10-24T00:03:11.629Z,4.93
2022-10-24T00:05:43.018Z,3.77
2022-10-24T00:08:11.441Z,4.80
2022-10-24T00:10:42.348Z,4.20
2022-10-24T00:13:12.179Z,4.40
2022-10-24T00:15:40.786Z,4.50
2022-10-24T00:18:08.484Z,4.32
2022-10-24T00:20:37.163Z,3.72
2022-10-24T00:23:05.015Z,3.83
2022-10-24T00:25:32.880Z,4.07
2022-10-24T00:28:00.674Z,4.17
2022-10-24T00:30:30.043Z,3.80
2022-10-24T00:32:57.789Z,4.57
2022-10-24T00:35:25.599Z,3.67
2022-10-24T00:37:53.358Z,3.38
2022-10-24T00:40:22.181Z,4.10
2022-10-24T00:42:50.262Z,3.97
2022-10-24T00:45:43.476Z,3.80
2022-10-24T00:48:17.234Z,3.72
2022-10-24T00:50:46.376Z,4.10
2022-10-24T00:53:16.001Z,3.67
2022-10-24T00:55:44.653Z,3.47
2022-10-24T00:58:13.207Z,3.88
2022-10-24T01:00:42.292Z,4.25
2022-10-24T01:03:11.968Z,4.47
2022-10-24T01:05:56.726Z,4.50
2022-10-24T01:08:31.730Z,4.40
2022-10-24T01:11:06.223Z,4.20
2022-10-24T01:13:44.399Z,4.07
2022-10-24T01:16:16.934Z,3.70
2022-10-24T01:18:51.032Z,4.37
2022-10-24T01:21:31.333Z,3.90
2022-10-24T01:24:11.497Z,4.13
2022-10-24T01:27:22.264Z,4.25
2022-10-24T01:30:02.629Z,3.80
2022-10-24T01:32:46.264Z,3.67
2022-10-24T01:35:36.490Z,3.80
2022-10-24T01:38:14.337Z,4.30
2022-10-24T01:40:50.744Z,4.10
2022-10-24T01:43:24.155Z,4.20
2022-10-24T01:45:59.130Z,3.87
2022-10-24T01:48:29.585Z,3.97
2022-10-24T01:50:59.522Z,3.30
2022-10-24T01:53:29.218Z,3.93
2022-10-24T01:55:58.422Z,4.83
2022-10-24T01:58:26.440Z,4.23
2022-10-24T02:01:01.021Z,3.60
2022-10-24T02:03:33.719Z,4.00
2022-10-24T02:06:08.126Z,4.57
2022-10-24T02:08:40.095Z,4.10
2022-10-24T02:11:10.682Z,3.90
2022-10-24T02:13:45.595Z,4.60
2022-10-24T02:16:18.506Z,4.43
2022-10-24T02:18:47.860Z,3.73
2022-10-24T02:21:24.728Z,4.40
2022-10-24T02:23:56.595Z,3.97
2022-10-24T02:26:32.371Z,4.10
2022-10-24T02:29:03.604Z,3.47
2022-10-24T02:31:37.395Z,4.03
2022-10-24T02:34:08.862Z,3.77
2022-10-24T02:36:38.514Z,4.20
2022-10-24T02:39:10.025Z,3.70
2022-10-24T02:41:40.754Z,4.63
2022-10-24T02:44:10.728Z,4.10
2022-10-24T02:46:40.537Z,3.70
2022-10-24T02:49:08.651Z,4.07
2022-10-24T02:51:39.189Z,3.63
2022-10-24T02:54:07.163Z,4.40
2022-10-24T02:56:36.260Z,3.97
2022-10-24T02:59:04.025Z,4.07
2022-10-24T03:01:31.864Z,3.83
2022-10-24T03:04:01.047Z,3.80
2022-10-24T03:06:28.835Z,3.70
2022-10-24T03:08:56.569Z,4.00
2022-10-24T03:11:24.337Z,3.80
2022-10-24T03:13:52.694Z,3.90
2022-10-24T03:16:20.904Z,3.60
2022-10-24T03:18:48.600Z,3.73
2022-10-24T03:21:17.700Z,3.77
2022-10-24T03:23:45.428Z,3.77
2022-10-24T03:26:13.300Z,3.83
2022-10-24T03:28:41.103Z,3.00
2022-10-24T03:31:09.426Z,4.30
2022-10-24T03:33:37.332Z,4.33
2022-10-24T03:36:06.439Z,3.90
2022-10-24T03:38:35.645Z,3.97
2022-10-24T03:41:03.321Z,3.73
2022-10-24T03:43:31.057Z,4.30
2022-10-24T03:45:59.512Z,4.70
2022-10-24T03:48:27.895Z,3.77
2022-10-24T03:50:56.148Z,4.90
2022-10-24T03:53:23.996Z,4.33
2022-10-24T03:55:53.214Z,4.53
2022-10-24T03:58:20.975Z,5.23
2022-10-24T04:00:48.739Z,3.87
2022-10-24T04:03:16.472Z,3.83
2022-10-24T04:05:44.215Z,3.50
2022-10-24T04:08:11.977Z,4.00
2022-10-24T04:10:39.675Z,3.47
2022-10-24T04:13:08.723Z,3.97
2022-10-24T04:15:36.531Z,4.10
2022-10-24T04:18:04.827Z,4.00
2022-10-24T04:20:32.531Z,3.43
2022-10-24T04:23:02.413Z,3.53
2022-10-24T04:25:32.424Z,3.60
2022-10-24T04:28:00.099Z,2.93
2022-10-24T04:30:30.012Z,3.57
2022-10-24T04:32:58.209Z,3.50
2022-10-24T04:35:26.662Z,3.53
2022-10-24T04:37:54.426Z,3.70
2022-10-24T04:40:22.186Z,3.17
2022-10-24T04:42:49.836Z,3.00
2022-10-24T04:45:17.716Z,3.67
2022-10-24T04:47:47.037Z,2.87
2022-10-24T04:50:14.909Z,2.80
2022-10-24T04:52:42.542Z,3.03
2022-10-24T04:55:10.554Z,3.00
2022-10-24T04:57:38.545Z,2.80
2022-10-24T05:00:07.803Z,3.17
2022-10-24T05:02:35.625Z,2.50
2022-10-24T05:05:05.193Z,2.80
2022-10-24T05:07:32.984Z,3.17
2022-10-24T05:10:00.808Z,2.80
2022-10-24T05:12:28.617Z,2.07
2022-10-24T05:14:56.314Z,2.90
2022-10-24T05:17:24.346Z,2.50
2022-10-24T05:19:52.056Z,2.80
2022-10-24T05:22:21.324Z,2.50
2022-10-24T05:24:49.096Z,2.20
2022-10-24T05:27:20.673Z,2.20
2022-10-24T05:29:48.431Z,2.30
2022-10-24T05:32:16.127Z,2.27
2022-10-24T05:34:43.839Z,2.40
2022-10-24T05:37:11.567Z,2.50
2022-10-24T05:39:41.122Z,2.13
2022-10-24T05:42:11.028Z,2.20
2022-10-24T05:44:39.326Z,2.40
2022-10-24T05:47:07.430Z,2.57
2022-10-24T05:49:35.455Z,2.60
2022-10-24T05:52:03.346Z,2.23
2022-10-24T05:54:37.822Z,2.27
2022-10-24T05:57:18.122Z,2.73
2022-10-24T05:59:45.844Z,3.73
2022-10-24T06:02:19.093Z,2.50
2022-10-24T06:04:48.144Z,2.67
2022-10-24T06:07:15.896Z,2.17
2022-10-24T06:09:43.659Z,2.27
2022-10-24T06:12:12.538Z,2.10
2022-10-24T06:14:41.831Z,1.90
2022-10-24T06:17:11.781Z,2.63
2022-10-24T06:19:39.739Z,2.30
2022-10-24T06:22:09.468Z,2.50
2022-10-24T06:24:37.878Z,2.70
2022-10-24T06:27:07.028Z,2.80
2022-10-24T06:29:35.538Z,2.50
2022-10-24T06:32:04.562Z,2.30
2022-10-24T06:34:32.393Z,2.20
2022-10-24T06:37:00.048Z,1.90
2022-10-24T06:39:27.801Z,2.20
2022-10-24T06:41:55.444Z,2.33
2022-10-24T06:44:23.578Z,2.30
2022-10-24T06:46:51.297Z,2.27
2022-10-24T06:49:20.570Z,3.13
2022-10-24T06:51:48.254Z,3.60
2022-10-24T06:54:16.292Z,3.10
2022-10-24T06:56:44.073Z,3.30
2022-10-24T06:59:13.994Z,2.73
2022-10-24T07:01:41.899Z,2.83
2022-10-24T07:04:09.943Z,2.63
2022-10-24T07:06:39.245Z,2.90
2022-10-24T07:09:10.231Z,2.40
2022-10-24T07:11:40.633Z,2.47
2022-10-24T07:14:09.461Z,2.57
2022-10-24T07:16:37.872Z,2.53
2022-10-24T07:19:06.642Z,2.40
2022-10-24T07:21:34.818Z,2.70
2022-10-24T07:24:05.368Z,2.27
2022-10-24T07:26:33.271Z,2.83
2022-10-24T07:31:36.707Z,2.07
2022-10-24T07:34:06.686Z,1.80
2022-10-24T07:36:34.392Z,2.70
2022-10-24T07:39:02.614Z,2.00
2022-10-24T07:41:33.513Z,1.80
2022-10-24T07:44:03.079Z,2.10
2022-10-24T07:46:31.559Z,1.77
2022-10-24T07:48:59.296Z,1.87
2022-10-24T07:51:28.456Z,1.58
2022-10-24T07:53:57.180Z,1.70
2022-10-24T07:56:25.288Z,2.00
2022-10-24T07:58:55.010Z,1.70
2022-10-24T08:01:25.334Z,1.93
2022-10-24T08:03:53.091Z,1.80
2022-10-24T08:06:24.530Z,1.63
2022-10-24T08:08:52.574Z,1.67
2022-10-24T08:11:22.704Z,1.83
2022-10-24T08:13:51.717Z,2.20
2022-10-24T08:16:22.735Z,2.10
2022-10-24T08:18:52.151Z,1.80
2022-10-24T08:21:21.787Z,1.40
2022-10-24T08:23:52.108Z,1.93
2022-10-24T08:26:21.862Z,1.73
2022-10-24T08:28:50.024Z,1.50
2022-10-24T08:31:21.575Z,1.77
2022-10-24T08:33:51.954Z,1.43
2022-10-24T08:36:26.855Z,1.80
2022-10-24T08:38:54.857Z,1.53
2022-10-24T08:41:28.865Z,1.50
2022-10-24T08:43:58.596Z,2.00
2022-10-24T08:46:49.070Z,1.70
2022-10-24T08:49:24.810Z,1.93
2022-10-24T08:51:55.647Z,1.40
2022-10-24T08:54:29.183Z,2.03
2022-10-24T08:56:59.890Z,1.60
2022-10-24T08:59:30.968Z,1.40
2022-10-24T09:02:04.537Z,1.93
2022-10-24T09:04:40.207Z,1.50
2022-10-24T09:07:15.420Z,1.57
2022-10-24T09:09:47.648Z,1.63
2022-10-24T09:12:16.994Z,1.23
2022-10-24T09:14:46.995Z,1.70
2022-10-24T09:17:21.452Z,1.80
2022-10-24T09:19:53.231Z,1.47
2022-10-24T09:22:22.319Z,1.23
2022-10-24T09:24:54.291Z,1.75
2022-10-24T09:27:25.301Z,1.50
2022-10-24T09:29:53.587Z,1.75
2022-10-24T09:32:26.763Z,1.73
2022-10-24T09:34:55.153Z,1.70
2022-10-24T09:37:43.948Z,1.70
2022-10-24T09:40:19.787Z,2.33
2022-10-24T09:43:01.038Z,1.50
2022-10-24T09:45:43.382Z,1.90
2022-10-24T09:48:26.168Z,1.80
2022-10-24T09:50:58.077Z,1.60
2022-10-24T09:53:29.084Z,1.87
2022-10-24T09:56:00.567Z,1.40
2022-10-24T09:58:32.732Z,1.58
2022-10-24T10:01:05.191Z,1.53
2022-10-24T10:03:36.024Z,2.05
2022-10-24T10:06:16.356Z,1.70
2022-10-24T10:08:51.326Z,1.75
2022-10-24T10:11:26.575Z,1.50
2022-10-24T10:13:55.464Z,1.60
2022-10-24T10:16:25.976Z,1.37
2022-10-24T10:19:03.643Z,1.10
2022-10-24T10:21:56.200Z,1.23
2022-10-24T10:24:29.484Z,1.67
2022-10-24T10:26:57.335Z,1.30
2022-10-24T10:29:25.838Z,1.30
2022-10-24T10:32:03.050Z,1.80
2022-10-24T10:34:40.540Z,1.47
2022-10-24T10:41:02.832Z,1.47
2022-10-24T10:43:38.606Z,1.20
2022-10-24T10:46:17.604Z,1.50
2022-10-24T10:48:56.592Z,1.43
2022-10-24T10:51:39.940Z,1.80
2022-10-24T10:54:31.455Z,1.55
2022-10-24T10:57:04.139Z,1.60
2022-10-24T10:59:46.495Z,1.90
2022-10-24T11:02:36.002Z,1.70
2022-10-24T11:05:17.996Z,1.00
2022-10-24T11:07:57.846Z,1.40
2022-10-24T11:10:48.042Z,1.60
2022-10-24T11:13:25.352Z,1.20
2022-10-24T11:16:01.645Z,1.80
2022-10-24T11:18:35.628Z,1.33
2022-10-24T11:21:09.756Z,1.50
2022-10-24T11:23:44.523Z,1.37
2022-10-24T11:26:19.953Z,1.33
2022-10-24T11:29:03.122Z,1.40
2022-10-24T11:31:35.115Z,1.50
2022-10-24T11:34:12.281Z,1.45
2022-10-24T11:36:44.376Z,1.23
2022-10-24T11:39:19.196Z,1.40
2022-10-24T11:41:54.773Z,1.55
2022-10-24T11:44:39.467Z,1.42
2022-10-24T11:47:35.007Z,1.20
2022-10-24T11:50:11.539Z,1.20
2022-10-24T11:52:43.892Z,1.13
2022-10-24T11:55:19.786Z,1.40
2022-10-24T11:57:55.388Z,1.55
2022-10-24T12:00:26.827Z,1.30
2022-10-24T12:03:21.135Z,1.15
2022-10-24T12:06:00.570Z,2.08
2022-10-24T12:09:17.010Z,1.23
2022-10-24T12:12:04.546Z,1.90
2022-10-24T12:15:21.061Z,1.83
2022-10-24T12:18:16.111Z,1.90
2022-10-24T12:20:48.616Z,1.60
2022-10-24T12:23:26.332Z,1.73
2022-10-24T12:26:10.166Z,1.40
2022-10-24T12:28:41.823Z,1.55
2022-10-24T12:31:14.620Z,1.55
2022-10-24T12:33:43.627Z,1.60
2022-10-24T12:36:52.550Z,1.35
2022-10-24T12:39:33.144Z,1.58
2022-10-24T12:42:01.096Z,1.40
2022-10-24T12:44:54.064Z,1.52
2022-10-24T12:47:40.177Z,2.08
2022-10-24T12:50:45.971Z,1.70
2022-10-24T12:53:33.771Z,1.55
2022-10-24T12:56:23.429Z,1.20
2022-10-24T12:58:59.797Z,1.25
2022-10-24T13:01:34.364Z,2.03
2022-10-24T13:04:26.299Z,1.35
2022-10-24T13:07:21.090Z,1.52
2022-10-24T13:10:04.478Z,1.50
2022-10-24T13:12:47.759Z,1.30
2022-10-24T13:15:28.133Z,1.50
2022-10-24T13:18:08.865Z,1.70
2022-10-24T13:20:39.552Z,1.42
2022-10-24T13:23:16.287Z,1.60
2022-10-24T13:25:44.767Z,1.20
2022-10-24T13:28:39.001Z,1.00
2022-10-24T13:31:44.469Z,1.77
2022-10-24T13:34:20.304Z,1.85
2022-10-24T13:36:51.612Z,2.45
2022-10-24T13:39:22.929Z,1.17
2022-10-24T13:41:58.020Z,1.70
2022-10-24T13:44:30.792Z,1.92
2022-10-24T13:47:07.488Z,1.40
2022-10-24T13:49:40.897Z,1.20
2022-10-24T13:52:22.146Z,1.20
2022-10-24T13:54:56.659Z,1.52
2022-10-24T13:57:34.825Z,1.25
2022-10-24T14:00:19.969Z,1.30
2022-10-24T14:02:53.407Z,1.42
2022-10-24T14:05:33.079Z,1.50
2022-10-24T14:08:02.288Z,1.63
2022-10-24T14:10:30.827Z,1.75
2022-10-24T14:13:05.047Z,1.60
2022-10-24T14:15:33.928Z,1.50
2022-10-24T14:18:14.315Z,1.50
2022-10-24T14:20:47.935Z,1.98
2022-10-24T14:23:28.287Z,1.83
2022-10-24T14:25:59.229Z,1.42
2022-10-24T14:28:33.694Z,1.52
2022-10-24T14:31:03.334Z,1.40
2022-10-24T14:33:32.832Z,1.85
2022-10-24T14:36:15.141Z,1.30
2022-10-24T14:38:43.576Z,1.17
2022-10-24T14:41:11.867Z,1.27
2022-10-24T14:43:45.078Z,1.85
2022-10-24T14:46:35.195Z,1.65
2022-10-24T14:49:22.484Z,1.35
2022-10-24T14:54:31.240Z,1.80
2022-10-24T14:57:00.680Z,1.33
2022-10-24T14:59:33.884Z,1.42
2022-10-24T15:02:05.482Z,1.73
2022-10-24T15:04:39.538Z,1.30
2022-10-24T15:07:27.975Z,1.40
2022-10-24T15:09:57.585Z,2.28
2022-10-24T15:12:29.148Z,1.83
2022-10-24T15:15:01.119Z,1.45
2022-10-24T15:17:32.695Z,1.40
2022-10-24T15:20:02.962Z,1.42
2022-10-24T15:22:34.909Z,1.10
2022-10-24T15:25:06.603Z,1.30
2022-10-24T15:27:40.471Z,1.65
2022-10-24T15:30:14.400Z,1.80
2022-10-24T15:32:42.115Z,2.00
2022-10-24T15:35:10.335Z,1.92
2022-10-24T15:37:39.367Z,1.58
2022-10-24T15:40:16.332Z,1.48
2022-10-24T15:42:44.246Z,1.67
2022-10-24T15:45:15.285Z,1.73
2022-10-24T15:47:44.644Z,1.60
2022-10-24T15:50:15.014Z,1.80
2022-10-24T15:52:47.488Z,1.73
2022-10-24T15:55:18.460Z,1.40
2022-10-24T15:57:46.676Z,1.55
2022-10-24T16:00:17.561Z,1.55
2022-10-24T16:02:48.331Z,2.00
2022-10-24T16:05:19.265Z,1.67
2022-10-24T16:07:48.984Z,1.70
2022-10-24T16:13:10.675Z,1.65
2022-10-24T16:15:39.696Z,2.00
2022-10-24T16:18:07.527Z,1.80
2022-10-24T16:20:36.494Z,1.80
2022-10-24T16:23:06.875Z,1.50
2022-10-24T16:25:37.690Z,1.88
2022-10-24T16:28:07.267Z,1.98
2022-10-24T16:30:37.726Z,1.70
2022-10-24T16:33:06.102Z,1.73
2022-10-24T16:35:36.661Z,1.77
2022-10-24T16:38:07.496Z,1.75
2022-10-24T16:43:09.231Z,1.80
2022-10-24T16:45:37.001Z,2.03
2022-10-24T16:48:05.272Z,2.13
2022-10-24T16:50:33.634Z,2.17
2022-10-24T16:53:04.152Z,2.10
2022-10-24T16:55:33.602Z,1.60
2022-10-24T16:58:01.555Z,2.10
2022-10-24T17:00:30.282Z,2.22
2022-10-24T17:02:58.896Z,1.77
2022-10-24T17:05:29.018Z,1.80
2022-10-24T17:07:57.309Z,2.33
2022-10-24T17:10:25.413Z,2.20
2022-10-24T17:12:54.556Z,1.98
2022-10-24T17:15:22.899Z,2.15
2022-10-24T17:17:50.833Z,2.17
2022-10-24T17:20:18.794Z,2.05
2022-10-24T17:22:47.410Z,2.05
2022-10-24T17:25:20.628Z,2.13
2022-10-24T17:27:49.026Z,2.40
2022-10-24T17:30:20.452Z,2.17
2022-10-24T17:32:48.595Z,2.55
2022-10-24T17:35:20.433Z,2.22
2022-10-24T17:37:57.236Z,2.58
2022-10-24T17:40:29.187Z,2.20
2022-10-24T17:42:57.483Z,2.00
2022-10-24T17:45:26.918Z,2.33
2022-10-24T17:47:55.510Z,2.28
2022-10-24T17:50:23.234Z,2.33
2022-10-24T17:52:52.106Z,2.42
2022-10-24T17:55:44.494Z,2.95
2022-10-24T17:58:10.229Z,2.95
2022-10-24T18:00:39.758Z,2.40
2022-10-24T18:03:08.689Z,2.65
2022-10-24T18:05:38.410Z,2.38
2022-10-24T18:08:08.233Z,2.88
2022-10-24T18:10:37.708Z,2.40
2022-10-24T18:13:05.710Z,2.42
2022-10-24T18:15:33.629Z,2.70
2022-10-24T18:18:02.875Z,2.28
2022-10-24T18:20:32.251Z,2.88
2022-10-24T18:23:01.454Z,2.72
2022-10-24T18:25:37.338Z,2.38
2022-10-24T18:28:05.674Z,1.98
2022-10-24T18:30:35.386Z,2.20
2022-10-24T18:33:06.500Z,2.40
2022-10-24T18:35:36.428Z,2.08
2022-10-24T18:38:04.200Z,1.92
2022-10-24T18:40:35.081Z,2.10
2022-10-24T18:43:05.221Z,2.05
2022-10-24T18:45:33.863Z,2.33
2022-10-24T18:48:02.424Z,2.53
2022-10-24T18:50:31.871Z,2.53
2022-10-24T18:53:05.007Z,2.55
2022-10-24T18:55:34.319Z,2.33
2022-10-24T18:58:02.770Z,3.10
2022-10-24T19:00:32.676Z,1.95
2022-10-24T19:03:17.524Z,2.30
2022-10-24T19:05:52.030Z,2.47
2022-10-24T19:08:25.231Z,2.45
2022-10-24T19:10:55.803Z,2.10
2022-10-24T19:13:25.137Z,2.30
2022-10-24T19:15:58.022Z,2.33
2022-10-24T19:18:27.227Z,2.20
2022-10-24T19:20:56.495Z,2.50
2022-10-24T19:23:24.677Z,1.83
2022-10-24T19:25:53.002Z,2.30
2022-10-24T19:28:21.575Z,2.33
2022-10-24T19:30:49.657Z,2.00
2022-10-24T19:33:17.742Z,2.13
2022-10-24T19:35:47.004Z,2.25
2022-10-24T19:38:17.439Z,1.95
2022-10-24T19:40:46.889Z,2.25
2022-10-24T19:43:14.753Z,2.72
2022-10-24T19:45:50.192Z,2.22
2022-10-24T19:48:22.891Z,2.00
2022-10-24T19:50:51.470Z,1.90
2022-10-24T19:53:20.544Z,2.15
2022-10-24T19:55:48.435Z,1.90
2022-10-24T19:58:19.946Z,2.08
2022-10-24T20:00:47.698Z,1.95
2022-10-24T20:03:15.954Z,1.85
2022-10-24T20:05:43.835Z,1.70
2022-10-24T20:08:11.559Z,1.85
2022-10-24T20:10:40.603Z,1.98
2022-10-24T20:13:08.280Z,1.48
2022-10-24T20:15:35.923Z,1.95
2022-10-24T20:18:03.676Z,2.08
2022-10-24T20:20:31.564Z,2.47
2022-10-24T20:22:59.427Z,1.95
2022-10-24T20:25:27.248Z,2.30
2022-10-24T20:27:56.336Z,2.45
2022-10-24T20:30:24.096Z,2.05
2022-10-24T20:32:51.823Z,2.28
2022-10-24T20:35:22.111Z,2.50
2022-10-24T20:37:50.188Z,2.30
2022-10-24T20:40:18.185Z,1.90
2022-10-24T20:42:46.971Z,2.13
2022-10-24T20:45:20.469Z,2.28
2022-10-24T20:47:50.885Z,2.13
2022-10-24T20:50:18.798Z,2.22
2022-10-24T20:52:46.702Z,2.42
2022-10-24T20:55:25.146Z,2.10
2022-10-24T20:58:02.282Z,2.10
2022-10-24T21:00:31.473Z,1.88
2022-10-24T21:02:59.247Z,2.28
2022-10-24T21:05:28.988Z,2.20
2022-10-24T21:07:56.896Z,2.20
2022-10-24T21:10:24.608Z,2.10
2022-10-24T21:12:52.569Z,2.22
2022-10-24T21:15:20.537Z,2.13
2022-10-24T21:17:49.602Z,2.30
2022-10-24T21:20:17.375Z,2.65
2022-10-24T21:22:45.067Z,2.10
2022-10-24T21:25:12.800Z,2.28
2022-10-24T21:27:40.528Z,2.40
2022-10-24T21:30:14.293Z,2.17
2022-10-24T21:32:42.541Z,2.13
2022-10-24T21:35:11.773Z,2.10
2022-10-24T21:37:39.456Z,2.65
2022-10-24T21:40:08.241Z,1.85
2022-10-24T21:42:36.023Z,1.77
2022-10-24T21:45:03.980Z,2.28
2022-10-24T21:47:32.056Z,1.40
2022-10-24T21:49:59.765Z,2.47
2022-10-24T21:52:28.873Z,2.10
2022-10-24T21:54:56.891Z,2.08
2022-10-24T21:57:24.723Z,2.20
2022-10-24T21:59:52.395Z,1.65
2022-10-24T22:02:20.177Z,1.73
2022-10-24T22:04:48.271Z,1.77
2022-10-24T22:07:16.375Z,2.00
2022-10-24T22:09:45.544Z,2.20
2022-10-24T22:12:13.256Z,1.50
2022-10-24T22:14:41.020Z,2.00
2022-10-24T22:17:08.733Z,1.50
2022-10-24T22:19:36.388Z,1.67
2022-10-24T22:22:04.309Z,1.45
2022-10-24T22:24:31.976Z,1.88
2022-10-24T22:27:01.073Z,1.75
2022-10-24T22:29:28.914Z,2.28
2022-10-24T22:31:57.189Z,2.05
2022-10-24T22:34:26.114Z,1.50
2022-10-24T22:37:05.253Z,1.60
2022-10-24T22:39:33.805Z,1.95
2022-10-24T22:42:03.483Z,2.28
2022-10-24T22:44:31.693Z,1.73
2022-10-24T22:47:26.120Z,2.28
2022-10-24T22:50:03.687Z,2.10
2022-10-24T22:52:31.845Z,2.20
2022-10-24T22:55:00.017Z,2.95
2022-10-24T22:57:29.624Z,1.90
2022-10-24T22:59:57.826Z,1.80
2022-10-24T23:02:33.690Z,1.75
2022-10-24T23:05:06.070Z,2.00
2022-10-24T23:07:42.947Z,2.08
2022-10-24T23:10:13.798Z,1.90
2022-10-24T23:12:43.597Z,2.17
2022-10-24T23:15:14.006Z,2.55
2022-10-24T23:17:42.355Z,1.83
2022-10-24T23:20:23.955Z,1.60
2022-10-24T23:23:03.002Z,1.92
2022-10-24T23:25:43.247Z,1.67
2022-10-24T23:28:20.144Z,2.15
2022-10-24T23:30:48.318Z,1.60
2022-10-24T23:33:27.280Z,2.15
2022-10-24T23:35:59.004Z,1.90
2022-10-24T23:38:27.929Z,1.80
2022-10-24T23:40:56.379Z,1.85
2022-10-24T23:43:26.071Z,1.92
2022-10-24T23:45:58.467Z,1.67
2022-10-24T23:48:48.073Z,1.98
2022-10-24T23:51:20.993Z,1.77
2022-10-24T23:53:52.774Z,1.20
2022-10-24T23:56:23.304Z,1.48
2022-10-24T23:58:52.681Z,1.75
